createdAt,value
2019-03-11T00:01:42.447Z,14.10
2019-03-11T00:04:10.440Z,10.90
2019-03-11T00:06:37.963Z,15.23
2019-03-11T00:09:05.532Z,11.10
2019-03-11T00:11:32.537Z,12.33
2019-03-11T00:13:59.455Z,13.70
2019-03-11T00:16:26.353Z,11.77
2019-03-11T00:18:53.150Z,8.93
2019-03-11T00:21:20.088Z,10.03
2019-03-11T00:23:47.200Z,12.17
2019-03-11T00:26:13.997Z,14.57
2019-03-11T00:28:40.906Z,9.50
2019-03-11T00:31:07.711Z,9.70
2019-03-11T00:33:34.637Z,12.03
2019-03-11T00:36:01.631Z,13.90
2019-03-11T00:38:28.616Z,13.00
2019-03-11T00:40:55.532Z,8.83
2019-03-11T00:43:22.579Z,10.23
2019-03-11T00:45:49.505Z,15.80
2019-03-11T00:48:16.296Z,9.93
2019-03-11T00:50:43.217Z,17.13
2019-03-11T00:53:11.085Z,10.53
2019-03-11T00:55:37.981Z,12.27
2019-03-11T00:58:04.888Z,14.77
2019-03-11T01:00:33.188Z,9.67
2019-03-11T01:03:00.100Z,10.77
2019-03-11T01:05:27.206Z,8.13
2019-03-11T01:07:54.205Z,11.27
2019-03-11T01:10:21.417Z,11.60
2019-03-11T01:12:48.317Z,15.47
2019-03-11T01:15:15.346Z,18.43
2019-03-11T01:17:42.244Z,13.47
2019-03-11T01:20:09.253Z,14.20
2019-03-11T01:22:36.250Z,13.90
2019-03-11T01:25:04.995Z,20.30
2019-03-11T01:27:32.377Z,11.87
2019-03-11T01:29:59.392Z,10.27
2019-03-11T01:32:26.402Z,12.37
2019-03-11T01:34:53.224Z,11.73
2019-03-11T01:37:20.115Z,12.30
2019-03-11T01:39:47.117Z,20.07
2019-03-11T01:42:14.110Z,12.10
2019-03-11T01:44:41.030Z,15.87
2019-03-11T01:47:08.038Z,17.40
2019-03-11T01:49:34.859Z,13.07
2019-03-11T01:52:01.772Z,7.83
2019-03-11T01:54:28.669Z,14.00
2019-03-11T01:56:55.577Z,9.33
2019-03-11T01:59:22.477Z,13.17
2019-03-11T02:01:49.485Z,16.80
2019-03-11T02:04:16.320Z,17.13
2019-03-11T02:06:43.229Z,8.97
2019-03-11T02:09:11.569Z,9.60
2019-03-11T02:11:38.592Z,15.17
2019-03-11T02:14:05.486Z,21.93
2019-03-11T02:16:32.494Z,14.87
2019-03-11T02:18:59.291Z,17.40
2019-03-11T02:21:26.218Z,13.47
2019-03-11T02:23:53.124Z,10.57
2019-03-11T02:26:20.028Z,18.60
2019-03-11T02:28:46.924Z,13.97
2019-03-11T02:31:13.813Z,19.23
2019-03-11T02:33:40.595Z,15.07
2019-03-11T02:36:07.502Z,17.03
2019-03-11T02:38:34.408Z,17.27
2019-03-11T02:41:01.408Z,13.70
2019-03-11T02:43:28.285Z,12.37
2019-03-11T02:45:55.098Z,14.73
2019-03-11T02:48:21.913Z,8.07
2019-03-11T02:50:48.687Z,14.87
2019-03-11T02:53:15.486Z,10.10
2019-03-11T02:55:42.281Z,10.17
2019-03-11T02:58:09.090Z,16.27
2019-03-11T03:00:36.084Z,11.53
2019-03-11T03:03:08.207Z,13.77
2019-03-11T03:05:39.860Z,11.63
2019-03-11T03:08:06.950Z,11.67
2019-03-11T03:10:33.853Z,15.87
2019-03-11T03:13:00.847Z,14.67
2019-03-11T03:15:27.741Z,15.80
2019-03-11T03:17:54.639Z,13.33
2019-03-11T03:20:21.528Z,17.33
2019-03-11T03:22:48.639Z,16.13
2019-03-11T03:25:15.643Z,12.33
2019-03-11T03:27:42.690Z,17.60
2019-03-11T03:30:14.498Z,20.83
2019-03-11T03:32:41.655Z,18.27
2019-03-11T03:35:08.924Z,9.23
2019-03-11T03:37:36.017Z,20.77
2019-03-11T03:40:04.222Z,14.23
2019-03-11T03:42:31.159Z,9.80
2019-03-11T03:45:26.779Z,16.93
2019-03-11T03:47:53.873Z,16.03
2019-03-11T03:50:20.782Z,14.87
2019-03-11T03:52:47.897Z,17.00
2019-03-11T03:55:14.931Z,14.53
2019-03-11T03:57:41.962Z,14.83
2019-03-11T04:00:08.957Z,8.73
2019-03-11T04:02:35.958Z,13.23
2019-03-11T04:05:03.164Z,11.27
2019-03-11T04:07:29.970Z,8.40
2019-03-11T04:09:56.958Z,18.17
2019-03-11T04:12:23.783Z,12.77
2019-03-11T04:14:50.983Z,16.17
2019-03-11T04:17:17.974Z,15.97
2019-03-11T04:19:44.985Z,19.73
2019-03-11T04:22:12.072Z,9.97
2019-03-11T04:24:38.975Z,12.63
2019-03-11T04:27:08.488Z,16.53
2019-03-11T04:29:35.388Z,15.50
2019-03-11T04:32:02.388Z,11.17
2019-03-11T04:34:29.199Z,13.97
2019-03-11T04:36:56.119Z,14.90
2019-03-11T04:39:22.940Z,21.67
2019-03-11T04:41:49.944Z,8.37
2019-03-11T04:44:16.830Z,11.73
2019-03-11T04:46:43.737Z,12.20
2019-03-11T04:49:10.637Z,9.70
2019-03-11T04:51:37.641Z,14.33
2019-03-11T04:54:04.450Z,14.47
2019-03-11T04:56:31.260Z,9.20
2019-03-11T04:59:09.133Z,13.03
2019-03-11T05:01:35.920Z,7.63
2019-03-11T05:04:02.918Z,6.33
2019-03-11T05:06:29.825Z,10.63
2019-03-11T05:08:56.729Z,9.53
2019-03-11T05:11:23.506Z,9.47
2019-03-11T05:13:50.425Z,8.13
2019-03-11T05:16:17.224Z,6.43
2019-03-11T05:18:44.036Z,8.17
2019-03-11T05:21:10.823Z,8.93
2019-03-11T05:23:37.733Z,7.60
2019-03-11T05:26:04.647Z,8.77
2019-03-11T05:28:31.562Z,7.00
2019-03-11T05:30:58.465Z,5.47
2019-03-11T05:33:25.367Z,6.50
2019-03-11T05:35:52.287Z,3.60
2019-03-11T05:38:19.185Z,2.67
2019-03-11T05:40:46.191Z,2.37
2019-03-11T05:43:12.995Z,5.17
2019-03-11T05:45:39.793Z,6.20
2019-03-11T05:48:06.585Z,5.97
2019-03-11T05:50:33.390Z,3.07
2019-03-11T05:53:00.326Z,3.43
2019-03-11T05:55:27.402Z,2.50
2019-03-11T05:57:54.188Z,4.87
2019-03-11T06:00:25.013Z,2.87
2019-03-11T06:02:51.999Z,6.87
2019-03-11T06:05:19.016Z,4.47
2019-03-11T06:07:46.015Z,3.53
2019-03-11T06:10:13.161Z,2.80
2019-03-11T06:12:40.162Z,5.50
2019-03-11T06:15:07.331Z,4.97
2019-03-11T06:17:34.271Z,5.00
2019-03-11T06:20:14.737Z,6.97
2019-03-11T06:22:41.529Z,8.87
2019-03-11T06:25:08.571Z,2.33
2019-03-11T06:27:35.562Z,6.10
2019-03-11T06:30:03.181Z,4.47
2019-03-11T06:32:30.073Z,5.77
2019-03-11T06:34:56.976Z,4.13
2019-03-11T06:37:23.894Z,4.27
2019-03-11T06:39:51.590Z,5.63
2019-03-11T06:42:18.387Z,4.23
2019-03-11T06:44:45.198Z,5.23
2019-03-11T06:47:12.085Z,2.33
2019-03-11T06:49:38.987Z,5.30
2019-03-11T06:52:05.983Z,4.40
2019-03-11T06:54:32.780Z,3.20
2019-03-11T06:56:59.578Z,4.07
2019-03-11T06:59:26.478Z,4.77
2019-03-11T07:01:53.391Z,3.13
2019-03-11T07:04:20.183Z,2.10
2019-03-11T07:06:47.001Z,3.37
2019-03-11T07:09:13.821Z,5.30
2019-03-11T07:11:40.781Z,4.23
2019-03-11T07:14:07.573Z,3.07
2019-03-11T07:16:34.577Z,3.33
2019-03-11T07:19:01.369Z,1.67
2019-03-11T07:21:28.254Z,4.23
2019-03-11T07:23:55.155Z,1.83
2019-03-11T07:26:21.973Z,4.10
2019-03-11T07:28:48.765Z,4.27
2019-03-11T07:31:15.761Z,3.13
2019-03-11T07:33:42.554Z,8.83
2019-03-11T07:36:09.627Z,4.43
2019-03-11T07:38:36.593Z,1.23
2019-03-11T07:41:03.602Z,4.03
2019-03-11T07:43:30.399Z,3.70
2019-03-11T07:45:57.300Z,2.97
2019-03-11T07:48:24.184Z,3.67
2019-03-11T07:50:51.093Z,3.40
2019-03-11T07:53:18.080Z,2.93
2019-03-11T07:55:44.886Z,3.50
2019-03-11T07:58:11.667Z,2.40
2019-03-11T08:00:38.666Z,2.67
2019-03-11T08:03:05.558Z,3.33
2019-03-11T08:05:32.557Z,7.00
2019-03-11T08:07:59.447Z,5.70
2019-03-11T08:10:26.362Z,7.17
2019-03-11T08:12:53.149Z,6.08
2019-03-11T08:15:20.155Z,4.17
2019-03-11T08:17:46.961Z,3.02
2019-03-11T08:20:14.094Z,4.22
2019-03-11T08:22:40.890Z,2.40
2019-03-11T08:25:07.901Z,3.53
2019-03-11T08:27:34.805Z,5.80
2019-03-11T08:30:01.632Z,2.80
2019-03-11T08:32:28.529Z,1.13
2019-03-11T08:34:55.411Z,3.07
2019-03-11T08:37:22.195Z,1.53
2019-03-11T08:39:48.986Z,1.07
2019-03-11T08:42:15.777Z,2.83
2019-03-11T08:44:42.679Z,3.80
2019-03-11T08:47:09.483Z,2.73
2019-03-11T08:49:36.262Z,4.53
2019-03-11T08:52:05.224Z,4.43
2019-03-11T08:54:31.958Z,7.20
2019-03-11T08:56:58.869Z,5.17
2019-03-11T08:59:25.778Z,4.07
2019-03-11T09:01:52.689Z,4.27
2019-03-11T09:04:19.693Z,4.47
2019-03-11T09:06:46.573Z,3.43
2019-03-11T09:09:13.460Z,6.83
2019-03-11T09:11:40.346Z,5.43
2019-03-11T09:14:07.271Z,6.03
2019-03-11T09:16:34.253Z,7.13
2019-03-11T09:19:01.041Z,7.43
2019-03-11T09:21:28.047Z,4.67
2019-03-11T09:23:54.853Z,4.33
2019-03-11T09:26:21.845Z,3.87
2019-03-11T09:28:48.737Z,4.90
2019-03-11T09:31:15.634Z,4.17
2019-03-11T09:33:42.610Z,6.23
2019-03-11T09:36:09.411Z,6.67
2019-03-11T09:38:36.190Z,3.90
2019-03-11T09:41:03.186Z,5.37
2019-03-11T09:43:29.970Z,11.53
2019-03-11T09:45:56.862Z,3.73
2019-03-11T09:48:23.669Z,4.73
2019-03-11T09:50:50.467Z,4.77
2019-03-11T09:53:17.354Z,8.07
2019-03-11T09:55:44.267Z,4.47
2019-03-11T09:58:11.173Z,5.20
2019-03-11T10:00:38.164Z,2.10
2019-03-11T10:03:05.138Z,2.67
2019-03-11T10:05:31.926Z,5.90
2019-03-11T10:07:59.049Z,4.83
2019-03-11T10:10:26.109Z,6.83
2019-03-11T10:12:52.905Z,5.33
2019-03-11T10:15:19.899Z,5.63
2019-03-11T10:17:46.889Z,4.30
2019-03-11T10:20:13.927Z,7.00
2019-03-11T10:22:40.974Z,3.63
2019-03-11T10:25:08.186Z,2.50
2019-03-11T10:27:35.118Z,1.80
2019-03-11T10:30:02.377Z,3.80
2019-03-11T10:32:29.173Z,4.73
2019-03-11T10:34:56.053Z,3.53
2019-03-11T10:37:23.048Z,5.50
2019-03-11T10:39:49.929Z,4.83
2019-03-11T10:42:16.818Z,5.37
2019-03-11T10:44:43.631Z,3.10
2019-03-11T10:47:10.713Z,3.57
2019-03-11T10:49:37.633Z,5.07
2019-03-11T10:52:07.188Z,3.67
2019-03-11T10:54:33.375Z,6.30
2019-03-11T10:57:00.300Z,5.90
2019-03-11T10:59:27.190Z,5.17
2019-03-11T11:01:54.109Z,5.33
2019-03-11T11:04:20.986Z,6.33
2019-03-11T11:06:47.782Z,6.50
2019-03-11T11:09:14.676Z,2.83
2019-03-11T11:11:41.593Z,5.90
2019-03-11T11:14:08.481Z,6.90
2019-03-11T11:16:35.372Z,8.17
2019-03-11T11:19:02.464Z,5.43
2019-03-11T11:21:29.263Z,6.73
2019-03-11T11:23:56.155Z,6.00
2019-03-11T11:26:23.048Z,3.73
2019-03-11T11:28:49.933Z,6.13
2019-03-11T11:31:16.937Z,5.87
2019-03-11T11:33:43.806Z,2.67
2019-03-11T11:36:10.602Z,4.73
2019-03-11T11:38:37.388Z,4.27
2019-03-11T11:41:04.387Z,6.20
2019-03-11T11:43:31.359Z,2.90
2019-03-11T11:45:58.261Z,2.20
2019-03-11T11:48:25.163Z,2.93
2019-03-11T11:50:51.938Z,2.90
2019-03-11T11:53:18.729Z,4.57
2019-03-11T11:55:45.626Z,4.07
2019-03-11T11:58:12.520Z,4.30
2019-03-11T12:00:41.356Z,4.07
2019-03-11T12:03:08.257Z,5.07
2019-03-11T12:05:35.263Z,3.57
2019-03-11T12:08:02.200Z,2.63
2019-03-11T12:10:29.343Z,5.43
2019-03-11T12:12:56.429Z,2.67
2019-03-11T12:15:23.405Z,2.43
2019-03-11T12:17:50.414Z,1.77
2019-03-11T12:20:19.130Z,1.83
2019-03-11T12:22:46.116Z,2.93
2019-03-11T12:25:14.554Z,4.40
2019-03-11T12:27:52.730Z,4.10
2019-03-11T12:30:13.709Z,4.43
2019-03-11T12:32:40.545Z,4.03
2019-03-11T12:35:08.177Z,7.63
2019-03-11T12:37:34.981Z,1.77
2019-03-11T12:40:01.776Z,5.03
2019-03-11T12:42:28.690Z,2.27
2019-03-11T12:44:55.498Z,4.57
2019-03-11T12:47:22.267Z,3.07
2019-03-11T12:49:49.069Z,2.83
2019-03-11T12:52:15.953Z,3.40
2019-03-11T12:54:42.869Z,5.50
2019-03-11T12:57:09.637Z,2.37
2019-03-11T12:59:40.510Z,5.07
2019-03-11T13:02:05.573Z,2.37
2019-03-11T13:04:32.470Z,5.40
2019-03-11T13:06:59.371Z,2.17
2019-03-11T13:09:26.284Z,2.23
2019-03-11T13:11:53.104Z,4.83
2019-03-11T13:14:19.920Z,2.93
2019-03-11T13:16:46.694Z,8.20
2019-03-11T13:19:13.817Z,2.20
2019-03-11T13:21:42.263Z,4.10
2019-03-11T13:24:09.270Z,3.53
2019-03-11T13:26:36.085Z,4.17
2019-03-11T13:29:03.106Z,2.40
2019-03-11T13:31:30.090Z,3.37
2019-03-11T13:33:56.888Z,2.57
2019-03-11T13:36:23.966Z,4.07
2019-03-11T13:38:50.883Z,3.87
2019-03-11T13:41:17.900Z,3.93
2019-03-11T13:43:44.880Z,3.40
2019-03-11T13:46:11.770Z,8.43
2019-03-11T13:48:38.750Z,6.93
2019-03-11T13:51:05.757Z,3.37
2019-03-11T13:53:32.630Z,5.70
2019-03-11T13:55:59.419Z,3.90
2019-03-11T13:58:26.213Z,2.23
2019-03-11T14:00:57.003Z,5.60
2019-03-11T14:03:26.678Z,4.37
2019-03-11T14:06:39.543Z,3.50
2019-03-11T14:09:09.361Z,5.60
2019-03-11T14:11:36.226Z,3.20
2019-03-11T14:14:03.232Z,4.53
2019-03-11T14:16:30.553Z,2.77
2019-03-11T14:18:57.429Z,3.80
2019-03-11T14:21:26.046Z,6.57
2019-03-11T14:23:52.999Z,2.17
2019-03-11T14:26:20.470Z,9.40
2019-03-11T14:28:47.354Z,5.37
2019-03-11T14:31:14.284Z,4.70
2019-03-11T14:33:41.099Z,4.40
2019-03-11T14:36:07.903Z,4.47
2019-03-11T14:38:34.892Z,2.97
2019-03-11T14:41:01.792Z,2.27
2019-03-11T14:43:28.589Z,4.57
2019-03-11T14:45:55.604Z,4.47
2019-03-11T14:48:22.388Z,7.20
2019-03-11T14:50:49.289Z,2.83
2019-03-11T14:53:16.265Z,5.70
2019-03-11T14:55:43.177Z,3.40
2019-03-11T14:58:09.979Z,5.93
2019-03-11T15:00:37.072Z,5.10
2019-03-11T15:03:04.057Z,6.30
2019-03-11T15:05:30.954Z,5.13
2019-03-11T15:07:57.835Z,2.80
2019-03-11T15:10:24.845Z,4.37
2019-03-11T15:12:51.814Z,6.03
2019-03-11T15:15:18.717Z,4.73
2019-03-11T15:17:45.695Z,7.47
2019-03-11T15:20:13.438Z,5.80
2019-03-11T15:22:40.427Z,6.40
2019-03-11T15:25:07.527Z,5.83
2019-03-11T15:27:34.522Z,3.47
2019-03-11T15:30:01.643Z,7.80
2019-03-11T15:32:28.548Z,8.53
2019-03-11T15:34:55.434Z,1.50
2019-03-11T15:37:22.643Z,3.00
2019-03-11T15:39:49.810Z,2.53
2019-03-11T15:42:16.814Z,4.47
2019-03-11T15:44:43.595Z,5.53
2019-03-11T15:47:10.577Z,3.63
2019-03-11T15:49:37.365Z,3.30
2019-03-11T15:52:04.274Z,3.17
2019-03-11T15:54:31.056Z,7.53
2019-03-11T15:56:57.847Z,4.33
2019-03-11T15:59:24.645Z,3.57
2019-03-11T16:01:51.717Z,4.20
2019-03-11T16:04:18.701Z,8.10
2019-03-11T16:06:45.588Z,4.20
2019-03-11T16:09:19.125Z,4.87
2019-03-11T16:11:41.425Z,6.90
2019-03-11T16:14:08.397Z,6.40
2019-03-11T16:16:35.291Z,5.17
2019-03-11T16:19:02.259Z,2.27
2019-03-11T16:21:29.178Z,4.20
2019-03-11T16:23:56.060Z,3.97
2019-03-11T16:26:22.969Z,6.17
2019-03-11T16:28:49.860Z,3.60
2019-03-11T16:31:16.683Z,5.20
2019-03-11T16:33:43.536Z,2.87
2019-03-11T16:36:10.555Z,4.57
2019-03-11T16:38:37.543Z,3.30
2019-03-11T16:41:04.453Z,5.60
2019-03-11T16:43:31.445Z,2.67
2019-03-11T16:45:58.440Z,2.80
2019-03-11T16:48:25.331Z,3.07
2019-03-11T16:50:52.360Z,3.20
2019-03-11T16:53:19.351Z,3.10
2019-03-11T16:55:47.340Z,4.30
2019-03-11T16:58:14.273Z,5.73
2019-03-11T17:00:41.960Z,7.23
2019-03-11T17:03:09.011Z,4.17
2019-03-11T17:05:36.041Z,3.70
2019-03-11T17:08:03.080Z,5.07
2019-03-11T17:10:30.401Z,5.57
2019-03-11T17:12:57.307Z,2.03
2019-03-11T17:15:24.176Z,5.43
2019-03-11T17:17:51.086Z,4.97
2019-03-11T17:20:18.379Z,3.60
2019-03-11T17:22:45.412Z,5.77
2019-03-11T17:25:12.641Z,3.57
2019-03-11T17:27:39.671Z,3.23
2019-03-11T17:30:08.764Z,2.70
2019-03-11T17:32:35.666Z,6.63
2019-03-11T17:35:03.187Z,3.67
2019-03-11T17:37:30.100Z,2.37
2019-03-11T17:39:57.086Z,6.90
2019-03-11T17:42:24.087Z,6.90
2019-03-11T17:44:51.199Z,3.27
2019-03-11T17:47:18.195Z,5.23
2019-03-11T17:49:44.986Z,3.03
2019-03-11T17:52:31.533Z,4.07
2019-03-11T17:54:58.330Z,4.30
2019-03-11T17:57:25.221Z,5.40
2019-03-11T17:59:52.061Z,6.23
2019-03-11T18:02:19.159Z,6.97
2019-03-11T18:04:45.946Z,4.33
2019-03-11T18:07:12.858Z,6.23
2019-03-11T18:09:39.747Z,2.37
2019-03-11T18:12:06.643Z,4.13
2019-03-11T18:14:33.661Z,7.27
2019-03-11T18:17:00.441Z,6.30
2019-03-11T18:19:27.341Z,6.23
2019-03-11T18:21:54.335Z,3.23
2019-03-11T18:24:21.241Z,3.13
2019-03-11T18:26:48.252Z,4.83
2019-03-11T18:29:15.176Z,6.53
2019-03-11T18:31:42.142Z,4.23
2019-03-11T18:34:08.978Z,4.83
2019-03-11T18:36:36.057Z,3.73
2019-03-11T18:39:05.104Z,3.93
2019-03-11T18:41:32.137Z,5.43
2019-03-11T18:43:59.221Z,5.67
2019-03-11T18:46:26.246Z,4.60
2019-03-11T18:48:53.136Z,2.80
2019-03-11T18:51:20.028Z,4.97
2019-03-11T18:53:46.824Z,2.23
2019-03-11T18:56:13.625Z,4.93
2019-03-11T18:58:40.518Z,2.33
2019-03-11T19:01:07.525Z,1.90
2019-03-11T19:03:34.476Z,1.80
2019-03-11T19:06:01.363Z,3.87
2019-03-11T19:08:28.366Z,4.23
2019-03-11T19:10:55.371Z,2.57
2019-03-11T19:13:22.426Z,2.27
2019-03-11T19:15:49.492Z,3.53
2019-03-11T19:18:16.451Z,7.80
2019-03-11T19:20:43.566Z,6.80
2019-03-11T19:23:10.521Z,5.77
2019-03-11T19:25:37.593Z,5.60
2019-03-11T19:28:04.639Z,5.40
2019-03-11T19:30:31.667Z,5.77
2019-03-11T19:32:58.571Z,3.67
2019-03-11T19:35:25.430Z,5.47
2019-03-11T19:37:52.441Z,2.90
2019-03-11T19:40:19.575Z,3.83
2019-03-11T19:42:46.613Z,4.23
2019-03-11T19:45:14.404Z,3.10
2019-03-11T19:47:41.342Z,4.10
2019-03-11T19:50:09.360Z,4.80
2019-03-11T19:52:36.179Z,7.10
2019-03-11T19:55:03.515Z,4.53
2019-03-11T19:57:30.515Z,4.10
2019-03-11T19:59:57.500Z,4.07
2019-03-11T20:02:24.594Z,4.13
2019-03-11T20:04:51.682Z,2.73
2019-03-11T20:07:18.626Z,6.43
2019-03-11T20:09:45.854Z,3.37
2019-03-11T20:12:12.946Z,6.77
2019-03-11T20:14:39.929Z,6.30
2019-03-11T20:17:06.938Z,6.73
2019-03-11T20:19:33.902Z,7.20
2019-03-11T20:22:00.799Z,3.90
2019-03-11T20:24:27.656Z,7.67
2019-03-11T20:26:54.621Z,5.30
2019-03-11T20:29:23.369Z,3.77
2019-03-11T20:31:50.318Z,5.60
2019-03-11T20:34:17.336Z,4.00
2019-03-11T20:36:44.397Z,3.67
2019-03-11T20:39:11.608Z,4.50
2019-03-11T20:41:38.613Z,3.53
2019-03-11T20:44:05.688Z,6.67
2019-03-11T20:46:32.649Z,2.03
2019-03-11T20:48:59.489Z,3.63
2019-03-11T20:51:26.362Z,7.43
2019-03-11T20:53:53.396Z,6.47
2019-03-11T20:56:20.449Z,2.67
2019-03-11T20:58:47.422Z,7.50
2019-03-11T21:01:14.286Z,6.03
2019-03-11T21:03:41.231Z,4.13
2019-03-11T21:06:08.238Z,5.40
2019-03-11T21:08:35.134Z,3.93
2019-03-11T21:11:02.112Z,4.73
2019-03-11T21:13:29.054Z,4.33
2019-03-11T21:15:56.045Z,3.83
2019-03-11T21:18:22.972Z,7.50
2019-03-11T21:20:49.920Z,6.43
2019-03-11T21:23:16.901Z,4.27
2019-03-11T21:25:43.885Z,5.27
2019-03-11T21:28:10.996Z,6.43
2019-03-11T21:30:37.931Z,3.90
2019-03-11T21:33:04.994Z,7.47
2019-03-11T21:35:32.091Z,5.90
2019-03-11T21:37:59.079Z,3.33
2019-03-11T21:40:26.244Z,7.00
2019-03-11T21:42:53.198Z,6.97
2019-03-11T21:45:33.048Z,5.07
2019-03-11T21:47:51.017Z,2.70
2019-03-11T21:50:19.177Z,8.10
2019-03-11T21:52:46.347Z,5.60
2019-03-11T21:55:13.393Z,7.27
2019-03-11T21:57:40.349Z,4.33
2019-03-11T22:00:10.197Z,6.90
2019-03-11T22:02:37.254Z,7.00
2019-03-11T22:05:04.373Z,6.27
2019-03-11T22:07:31.265Z,3.97
2019-03-11T22:09:58.091Z,2.60
2019-03-11T22:12:24.988Z,7.43
2019-03-11T22:14:52.018Z,3.43
2019-03-11T22:17:18.918Z,7.47
2019-03-11T22:19:45.818Z,4.97
2019-03-11T22:22:12.636Z,4.27
2019-03-11T22:24:39.645Z,5.33
2019-03-11T22:27:06.655Z,11.70
2019-03-11T22:29:33.458Z,3.60
2019-03-11T22:32:00.444Z,3.03
2019-03-11T22:34:27.353Z,5.13
2019-03-11T22:36:56.065Z,5.22
2019-03-11T22:39:22.942Z,5.40
2019-03-11T22:41:52.569Z,6.37
2019-03-11T22:44:18.692Z,3.50
2019-03-11T22:46:45.516Z,5.13
2019-03-11T22:49:12.305Z,5.55
2019-03-11T22:51:39.230Z,9.80
2019-03-11T22:54:06.024Z,8.60
2019-03-11T22:56:32.852Z,7.60
2019-03-11T22:58:59.764Z,8.13
2019-03-11T23:01:26.870Z,9.50
2019-03-11T23:03:53.770Z,7.53
2019-03-11T23:06:20.677Z,4.90
2019-03-11T23:08:47.651Z,2.27
2019-03-11T23:11:14.460Z,4.73
2019-03-11T23:13:41.258Z,8.80
2019-03-11T23:16:08.281Z,5.43
2019-03-11T23:18:35.170Z,7.93
2019-03-11T23:21:02.070Z,5.90
2019-03-11T23:23:28.859Z,6.50
2019-03-11T23:25:55.874Z,4.17
2019-03-11T23:28:22.902Z,4.50
2019-03-11T23:30:50.018Z,7.63
2019-03-11T23:33:17.025Z,3.93
2019-03-11T23:35:44.026Z,5.23
2019-03-11T23:38:11.134Z,8.33
2019-03-11T23:40:38.143Z,8.63
2019-03-11T23:43:05.162Z,10.37
2019-03-11T23:45:32.161Z,6.20
2019-03-11T23:47:59.075Z,7.85
2019-03-11T23:50:25.874Z,9.80
2019-03-11T23:52:52.664Z,9.83
2019-03-11T23:55:19.661Z,5.83
2019-03-11T23:57:46.469Z,9.08
